Time;durP1;ratioP1;P1;durP2;ratioP2;P2;SDS_P1;SDS_P2;PMS_P1;PMS_P2;Temp;Humidity;BMP_temperature;BMP_pressure;BME280_temperature;BME280_humidity;BME280_pressure;Samples;Min_cycle;Max_cycle;Signal;HPM_P1;HPM_P2
2023/03/28 00:01:01;;;;;;;1.70;1.20;;;;;;;8.31;84.77;96927.86;105550;1254;61875;-21
2023/03/28 00:03:35;;;;;;;2.00;1.40;;;;;;;8.25;83.84;96925.58;105465;1259;61539;-23
2023/03/28 00:06:08;;;;;;;2.70;1.60;;;;;;;8.00;84.48;96918.88;105616;1254;75168;-23
2023/03/28 00:08:38;;;;;;;0.90;0.80;;;;;;;7.69;85.08;96915.29;105529;1254;74606;-23
2023/03/28 00:11:11;;;;;;;1.60;1.10;;;;;;;7.98;83.86;96917.48;105612;1258;74328;-23
2023/03/28 00:13:40;;;;;;;1.70;0.80;;;;;;;8.08;82.77;96917.98;105528;1258;61926;-23
2023/03/28 00:16:11;;;;;;;3.90;1.20;;;;;;;7.79;83.02;96912.56;105560;1257;62015;-23
2023/03/28 00:18:41;;;;;;;1.80;1.00;;;;;;;7.56;84.24;96912.85;105690;1257;74303;-23
2023/03/28 00:21:18;;;;;;;1.00;0.70;;;;;;;7.74;84.05;96913.02;105737;1254;75356;-23
2023/03/28 00:23:51;;;;;;;0.90;0.80;;;;;;;7.86;83.28;96914.63;105658;1260;73154;-23
2023/03/28 00:26:21;;;;;;;2.10;1.00;;;;;;;7.73;83.07;96916.83;105805;1257;61157;-23
2023/03/28 00:28:50;;;;;;;1.60;1.10;;;;;;;7.41;84.42;96914.52;105723;1259;61851;-23
2023/03/28 00:31:24;;;;;;;1.30;0.80;;;;;;;7.35;85.20;96919.64;105711;1253;75333;-23
2023/03/28 00:33:52;;;;;;;2.70;0.90;;;;;;;7.72;84.40;96923.98;105496;1253;75590;-23
2023/03/28 00:36:21;;;;;;;1.90;1.00;;;;;;;7.73;83.53;96921.91;105636;1254;73938;-23
2023/03/28 00:38:52;;;;;;;2.00;1.20;;;;;;;7.58;84.12;96920.54;105672;1254;61097;-23
2023/03/28 00:41:22;;;;;;;1.00;0.90;;;;;;;7.33;84.82;96915.72;105673;1259;61584;-23
2023/03/28 00:43:53;;;;;;;0.90;0.80;;;;;;;7.50;84.76;96916.88;105550;1256;74336;-23
2023/03/28 00:46:34;;;;;;;1.80;1.00;;;;;;;7.77;83.73;96915.18;105407;1260;75010;-23
2023/03/28 00:49:13;;;;;;;2.60;1.10;;;;;;;7.88;82.76;96913.48;105626;1254;74234;-24
2023/03/28 00:51:47;;;;;;;1.20;0.90;;;;;;;7.60;83.44;96910.68;105653;1254;61644;-23
2023/03/28 00:54:18;;;;;;;1.00;0.70;;;;;;;7.41;83.87;96908.64;105339;1254;61863;-24
2023/03/28 00:56:51;;;;;;;2.70;0.90;;;;;;;7.53;84.38;96909.02;105624;1254;75590;-23
2023/03/28 00:59:23;;;;;;;3.10;0.90;;;;;;;7.86;83.33;96908.69;105675;1259;75872;-24
2023/03/28 01:01:52;;;;;;;2.60;1.30;;;;;;;7.80;83.04;96903.91;105603;1261;73238;-23
2023/03/28 01:04:23;;;;;;;1.20;1.10;;;;;;;7.56;83.73;96899.21;105819;1259;61100;-23
2023/03/28 01:06:54;;;;;;;1.60;1.10;;;;;;;7.27;84.72;96899.08;105722;1254;61149;-23
2023/03/28 01:09:23;;;;;;;1.30;0.80;;;;;;;7.08;85.02;96898.35;105622;1254;75323;-23
2023/03/28 01:11:53;;;;;;;1.60;1.10;;;;;;;7.45;83.79;96900.78;105573;1254;75805;-23
2023/03/28 01:14:23;;;;;;;1.60;1.00;;;;;;;7.79;82.10;96901.77;105594;1258;73176;-23
2023/03/28 01:16:55;;;;;;;0.80;0.70;;;;;;;7.73;81.62;96905.00;105795;1254;61086;-23
2023/03/28 01:19:50;;;;;;;1.10;0.90;;;;;;;7.46;82.13;96905.33;105745;1254;61225;-23
2023/03/28 01:22:56;;;;;;;4.00;1.00;;;;;;;7.13;83.49;96910.38;105877;1254;75849;-23
2023/03/28 01:25:38;;;;;;;0.70;0.50;;;;;;;6.97;84.13;96910.25;105826;1254;75779;-23
2023/03/28 01:28:19;;;;;;;1.20;0.70;;;;;;;7.43;83.46;96911.88;105636;1254;73946;-23
2023/03/28 01:31:25;;;;;;;1.20;0.70;;;;;;;7.54;82.61;96915.27;105675;1254;61199;-23
2023/03/28 01:34:55;;;;;;;1.50;0.90;;;;;;;7.24;83.06;96914.34;105471;1258;61944;-23
2023/03/28 01:38:00;;;;;;;0.80;0.50;;;;;;;6.80;84.98;96912.84;105732;1259;75168;-23
2023/03/28 01:40:38;;;;;;;0.60;0.30;;;;;;;6.85;84.52;96906.17;105779;1254;75808;-20
2023/03/28 01:43:14;;;;;;;0.20;0.20;;;;;;;6.78;80.95;96909.73;105607;1254;73494;-21
2023/03/28 01:45:58;;;;;;;0.30;0.30;;;;;;;6.16;80.89;96918.78;105617;1259;61176;-20
2023/03/28 01:48:49;;;;;;;0.20;0.20;;;;;;;5.39;83.13;96922.70;105705;1258;61659;-20
2023/03/28 01:51:27;;;;;;;0.30;0.20;;;;;;;4.64;85.21;96921.37;105595;1254;75076;-21
2023/03/28 01:54:01;;;;;;;0.20;0.20;;;;;;;4.04;86.90;96921.16;105582;1259;75487;-20
2023/03/28 01:56:49;;;;;;;0.60;0.20;;;;;;;4.17;86.92;96930.69;105610;1254;74148;-20
2023/03/28 01:59:38;;;;;;;0.20;0.20;;;;;;;4.20;86.62;96933.20;105652;1254;61151;-20
2023/03/28 02:02:35;;;;;;;0.30;0.30;;;;;;;3.72;88.04;96922.58;105662;1259;61962;-20
2023/03/28 02:05:28;;;;;;;3.70;0.40;;;;;;;3.58;89.50;96929.84;105642;1254;75628;-20
2023/03/28 02:07:58;;;;;;;3.30;0.20;;;;;;;3.75;89.00;96931.73;105744;1254;74826;-21
2023/03/28 02:10:40;;;;;;;0.80;0.20;;;;;;;4.02;87.25;96932.18;105683;1254;74196;-20
2023/03/28 02:13:38;;;;;;;0.20;0.20;;;;;;;3.95;87.31;96933.62;105577;1254;61939;-20
2023/03/28 02:16:26;;;;;;;0.20;0.20;;;;;;;3.43;88.52;96928.35;105347;1260;61896;-20
2023/03/28 02:19:08;;;;;;;0.20;0.20;;;;;;;3.25;89.90;96935.21;105701;1254;74219;-19
2023/03/28 02:22:15;;;;;;;0.20;0.20;;;;;;;3.44;88.58;96940.09;105862;1254;75838;-19
2023/03/28 02:24:55;;;;;;;0.20;0.20;;;;;;;3.38;88.04;96938.36;105776;1254;74231;-20
2023/03/28 02:27:55;;;;;;;0.20;0.20;;;;;;;3.10;89.05;96941.22;105825;1254;61061;-19
2023/03/28 02:30:36;;;;;;;0.20;0.20;;;;;;;2.92;89.79;96942.38;105731;1258;61867;-20
2023/03/28 02:33:38;;;;;;;0.20;0.20;;;;;;;3.26;89.31;96947.30;105680;1254;74992;-19
2023/03/28 02:36:26;;;;;;;0.20;0.20;;;;;;;3.34;87.74;96946.91;105542;1254;75917;-19
2023/03/28 02:39:04;;;;;;;0.20;0.20;;;;;;;2.98;88.59;96955.58;105649;1254;74228;-19
2023/03/28 02:41:36;;;;;;;0.30;0.30;;;;;;;2.96;88.74;96962.48;105520;1254;61058;-20
2023/03/28 02:44:27;;;;;;;0.20;0.20;;;;;;;2.48;88.47;96956.42;105788;1254;61591;-20
2023/03/28 02:47:05;;;;;;;0.20;0.20;;;;;;;2.28;88.44;96968.67;105612;1254;73652;-20
2023/03/28 02:49:46;;;;;;;0.10;0.10;;;;;;;2.26;88.21;96971.25;105702;1259;75465;-20
2023/03/28 02:52:36;;;;;;;0.20;0.20;;;;;;;1.96;89.24;96968.80;105720;1254;74185;-20
2023/03/28 02:55:27;;;;;;;0.30;0.30;;;;;;;1.41;89.84;96977.32;105702;1254;61698;-19
2023/03/28 02:58:23;;;;;;;0.20;0.20;;;;;;;1.40;89.94;96988.52;105701;1259;61058;-20
2023/03/28 03:00:52;;;;;;;0.30;0.30;;;;;;;1.31;88.94;96984.25;105476;1253;74408;-20
2023/03/28 03:03:22;;;;;;;0.90;0.60;;;;;;;0.66;90.57;96997.13;105609;1254;74978;-20
2023/03/28 03:05:51;;;;;;;0.40;0.30;;;;;;;0.53;91.78;97006.12;105653;1259;72989;-20
2023/03/28 03:08:20;;;;;;;0.40;0.40;;;;;;;0.74;91.06;97006.46;105538;1255;61134;-20
2023/03/28 03:10:49;;;;;;;0.30;0.30;;;;;;;0.73;90.55;97014.42;105625;1259;61634;-20
2023/03/28 03:13:19;;;;;;;0.50;0.40;;;;;;;0.57;90.27;97015.52;105667;1258;74077;-20
2023/03/28 03:15:48;;;;;;;0.50;0.40;;;;;;;0.20;91.29;97012.09;105916;1254;75894;-20
2023/03/28 03:18:23;;;;;;;0.90;0.50;;;;;;;-0.08;92.43;97009.40;105601;1259;73965;-20
2023/03/28 03:20:52;;;;;;;0.30;0.30;;;;;;;0.13;92.55;97019.69;105658;1254;61198;-20
2023/03/28 03:23:26;;;;;;;0.80;0.30;;;;;;;0.16;92.40;97024.30;105609;1258;61704;-20
2023/03/28 03:25:57;;;;;;;0.30;0.30;;;;;;;0.34;92.05;97022.83;105630;1254;75311;-20
2023/03/28 03:28:32;;;;;;;0.20;0.20;;;;;;;0.19;90.78;97028.65;105533;1259;75584;-20
2023/03/28 03:31:05;;;;;;;0.40;0.30;;;;;;;0.14;91.41;97027.27;105883;1254;73607;-20
2023/03/28 03:33:52;;;;;;;0.20;0.20;;;;;;;0.22;90.84;97034.77;105765;1253;61656;-20
2023/03/28 03:36:25;;;;;;;0.30;0.30;;;;;;;0.26;90.87;97041.02;105852;1257;61881;-20
2023/03/28 03:38:55;;;;;;;0.20;0.20;;;;;;;0.22;91.05;97041.77;105698;1260;74065;-20
2023/03/28 03:41:24;;;;;;;0.60;0.40;;;;;;;0.03;91.78;97046.54;105575;1254;75174;-20
2023/03/28 03:43:54;;;;;;;0.50;0.50;;;;;;;0.20;90.88;97053.05;105786;1254;74302;-21
2023/03/28 03:46:22;;;;;;;0.40;0.40;;;;;;;-0.03;90.45;97041.64;105845;1254;61905;-21
2023/03/28 03:48:54;;;;;;;0.20;0.20;;;;;;;-0.04;91.19;97049.92;105860;1259;61914;-21
2023/03/28 03:51:23;;;;;;;0.50;0.30;;;;;;;-0.43;91.88;97055.64;105765;1254;75158;-21
2023/03/28 03:53:56;;;;;;;0.30;0.30;;;;;;;-0.30;92.91;97060.55;105667;1254;75845;-21
2023/03/28 03:56:32;;;;;;;0.30;0.30;;;;;;;-0.13;92.21;97058.73;105593;1258;74023;-21
2023/03/28 03:59:01;;;;;;;1.20;0.50;;;;;;;-0.03;91.91;97066.61;105796;1254;61131;-21
2023/03/28 04:01:33;;;;;;;0.60;0.40;;;;;;;-0.25;92.73;97078.85;105660;1257;61748;-22
2023/03/28 04:04:23;;;;;;;0.70;0.60;;;;;;;-0.28;93.68;97078.89;105522;1254;74410;-24
2023/03/28 04:07:11;;;;;;;0.80;0.60;;;;;;;-0.30;92.25;97075.39;105561;1254;75907;-24
2023/03/28 04:09:39;;;;;;;1.00;0.80;;;;;;;-0.32;92.44;97087.46;105678;1259;74319;-24
2023/03/28 04:12:09;;;;;;;0.90;0.50;;;;;;;-0.34;92.88;97090.02;105701;1254;60985;-24
2023/03/28 04:14:46;;;;;;;1.30;0.80;;;;;;;-0.12;92.45;97093.09;105713;1259;61897;-24
2023/03/28 04:17:39;;;;;;;0.20;0.20;;;;;;;0.06;91.53;97099.20;105771;1254;75203;-24
2023/03/28 04:20:16;;;;;;;4.80;0.40;;;;;;;-0.11;91.78;97102.59;105720;1259;75917;-24
2023/03/28 04:23:07;;;;;;;0.30;0.30;;;;;;;-0.47;93.04;97102.83;105845;1257;73925;-23
2023/03/28 04:25:41;;;;;;;0.50;0.50;;;;;;;-0.46;92.36;97090.46;105476;1259;61087;-23
2023/03/28 04:28:15;;;;;;;0.30;0.30;;;;;;;-0.41;92.22;97103.08;105732;1257;61583;-22
2023/03/28 04:30:59;;;;;;;1.20;0.70;;;;;;;-0.48;92.36;97113.59;105659;1254;75499;-22
2023/03/28 04:33:55;;;;;;;0.30;0.30;;;;;;;-0.64;92.77;97115.72;105422;1254;75569;-23
2023/03/28 04:36:24;;;;;;;0.50;0.30;;;;;;;-0.40;92.15;97115.45;105870;1257;74187;-23
2023/03/28 04:39:02;;;;;;;0.50;0.40;;;;;;;-0.36;90.80;97116.92;105713;1259;62042;-23
2023/03/28 04:41:54;;;;;;;1.90;0.90;;;;;;;-0.47;91.01;97129.05;105859;1257;62072;-23
2023/03/28 04:44:41;;;;;;;1.50;1.00;;;;;;;-0.67;92.39;97139.40;105851;1254;75161;-23
2023/03/28 04:47:11;;;;;;;0.40;0.40;;;;;;;-0.49;92.21;97131.04;105810;1257;75790;-23
2023/03/28 04:49:40;;;;;;;0.40;0.40;;;;;;;-0.31;91.61;97144.86;105859;1254;73175;-23
2023/03/28 04:52:08;;;;;;;1.30;0.30;;;;;;;-0.55;92.45;97137.05;105748;1255;61732;-23
2023/03/28 04:54:37;;;;;;;0.30;0.30;;;;;;;-0.66;92.97;97128.45;105863;1260;61587;-24
2023/03/28 04:57:17;;;;;;;1.00;0.60;;;;;;;-0.44;92.45;97149.00;105734;1254;75362;-23
2023/03/28 04:59:49;;;;;;;0.30;0.30;;;;;;;-0.52;92.23;97161.77;105604;1254;75912;-23
2023/03/28 05:02:23;;;;;;;0.70;0.50;;;;;;;-0.59;92.09;97158.85;105850;1256;73159;-22
2023/03/28 05:05:00;;;;;;;0.30;0.30;;;;;;;-0.83;92.82;97156.44;105775;1254;61184;-24
2023/03/28 05:07:29;;;;;;;0.50;0.30;;;;;;;-0.81;93.17;97162.48;105686;1260;61745;-23
2023/03/28 05:09:59;;;;;;;0.30;0.30;;;;;;;-0.61;92.46;97164.77;105696;1254;73314;-23
2023/03/28 05:12:36;;;;;;;0.70;0.40;;;;;;;-0.81;92.32;97169.95;105817;1260;75754;-23
2023/03/28 05:15:06;;;;;;;0.60;0.40;;;;;;;-1.01;93.84;97172.44;105744;1254;74375;-22
2023/03/28 05:17:45;;;;;;;0.40;0.40;;;;;;;-0.96;93.68;97170.95;105725;1254;61091;-22
2023/03/28 05:20:27;;;;;;;0.50;0.40;;;;;;;-1.04;94.25;97161.77;105838;1257;61658;-22
2023/03/28 05:22:57;;;;;;;0.90;0.50;;;;;;;-0.99;93.98;97165.69;105835;1254;74978;-22
2023/03/28 05:25:25;;;;;;;0.50;0.50;;;;;;;-1.14;93.56;97151.97;105614;1259;76960;-22
2023/03/28 05:27:55;;;;;;;1.00;0.60;;;;;;;-0.85;93.32;97166.99;105600;1259;73709;-22
2023/03/28 05:30:24;;;;;;;1.00;0.50;;;;;;;-0.93;92.82;97163.45;105770;1254;61179;-22
2023/03/28 05:32:57;;;;;;;0.90;0.70;;;;;;;-1.15;93.60;97161.59;105785;1257;61954;-22
2023/03/28 05:35:25;;;;;;;0.70;0.60;;;;;;;-1.21;94.16;97157.86;105718;1254;74148;-23
2023/03/28 05:37:54;;;;;;;1.20;0.70;;;;;;;-0.94;93.41;97165.70;105933;1254;75876;-22
2023/03/28 05:40:23;;;;;;;1.10;0.70;;;;;;;-0.96;93.31;97161.58;105725;1258;73965;-22
2023/03/28 05:45:42;;;;;;;1.10;0.50;;;;;;;-1.09;93.78;97162.73;103551;1280;617488;-22
2023/03/28 05:48:17;;;;;;;0.80;0.60;;;;;;;-1.17;93.62;97162.58;105771;1254;60979;-22
2023/03/28 05:50:48;;;;;;;3.00;0.70;;;;;;;-1.23;93.96;97169.73;105737;1257;61100;-22
2023/03/28 05:53:17;;;;;;;3.00;1.20;;;;;;;-1.26;94.20;97164.48;105779;1257;73496;-21
2023/03/28 05:55:44;;;;;;;1.70;0.60;;;;;;;-1.52;94.77;97168.32;105746;1254;75793;-22
2023/03/28 05:58:13;;;;;;;1.20;0.60;;;;;;;-1.24;94.81;97165.04;104424;1254;2087722;-22
2023/03/28 06:00:41;;;;;;;2.50;1.10;;;;;;;-1.32;94.52;97162.48;106007;1251;61118;-22
2023/03/28 06:03:10;;;;;;;0.50;0.40;;;;;;;-1.34;95.01;97172.65;106032;1255;61721;-22
2023/03/28 06:05:45;;;;;;;1.10;0.50;;;;;;;-1.07;94.89;97178.64;105943;1256;73753;-22
2023/03/28 06:08:23;;;;;;;0.50;0.40;;;;;;;-0.91;93.70;97188.31;105900;1251;75822;-22
2023/03/28 06:10:59;;;;;;;0.30;0.30;;;;;;;-1.07;93.02;97188.64;105929;1251;74322;-22
2023/03/28 06:13:30;;;;;;;0.50;0.40;;;;;;;-1.14;93.64;97187.08;105700;1257;61123;-22
2023/03/28 06:15:57;;;;;;;1.20;0.80;;;;;;;-1.21;93.58;97175.73;105867;1253;61794;-21
2023/03/28 06:18:34;;;;;;;2.40;1.30;;;;;;;-0.98;92.20;97194.52;105891;1251;74397;-21
2023/03/28 06:21:03;;;;;;;2.00;0.90;;;;;;;-1.27;92.27;97174.45;106016;1251;74698;-22
2023/03/28 06:23:31;;;;;;;1.50;1.00;;;;;;;-1.40;93.41;97194.45;105892;1251;74406;-22
2023/03/28 06:25:58;;;;;;;0.90;0.80;;;;;;;-1.28;93.59;97187.56;105910;1251;61154;-22
2023/03/28 06:28:29;;;;;;;0.50;0.50;;;;;;;-1.26;93.44;97201.73;105757;1257;61914;-22
2023/03/28 06:31:44;;;;;;;2.60;1.40;;;;;;;-1.26;92.45;97190.04;105896;1251;74527;-22
2023/03/28 06:34:12;;;;;;;1.70;1.00;;;;;;;-1.33;93.15;97209.56;105971;1250;75765;-24
2023/03/28 06:36:50;;;;;;;2.20;1.30;;;;;;;-1.23;92.12;97215.73;105840;1254;74217;-22
2023/03/28 06:39:17;;;;;;;1.60;1.10;;;;;;;-1.32;92.85;97219.16;105722;1251;61144;-21
2023/03/28 06:41:44;;;;;;;1.70;1.10;;;;;;;-1.32;93.21;97221.23;105733;1252;61755;-22
2023/03/28 06:44:11;;;;;;;1.00;0.80;;;;;;;-1.16;93.11;97229.77;105571;1254;74659;-22
2023/03/28 06:46:48;;;;;;;0.50;0.40;;;;;;;-0.73;91.69;97241.20;105832;1254;76059;-23
2023/03/28 06:49:16;;;;;;;0.90;0.40;;;;;;;-0.81;91.30;97241.01;105678;1257;74115;-22
2023/03/28 06:52:06;;;;;;;1.80;0.60;;;;;;;-1.08;91.47;97230.10;105455;1252;62887;-22
2023/03/28 06:54:34;;;;;;;0.50;0.50;;;;;;;-0.92;91.51;97234.91;105704;1257;61281;-23
2023/03/28 06:57:02;;;;;;;0.70;0.50;;;;;;;-0.95;90.80;97249.05;105857;1256;74535;-22
2023/03/28 06:59:31;;;;;;;0.50;0.50;;;;;;;-0.87;90.97;97258.12;105670;1256;76006;-22
2023/03/28 07:02:01;;;;;;;2.60;1.20;;;;;;;-1.13;91.34;97252.02;105494;1254;74059;-22
2023/03/28 07:04:39;;;;;;;0.70;0.60;;;;;;;-0.95;90.93;97251.65;105590;1254;61195;-22
2023/03/28 07:07:08;;;;;;;14.60;1.10;;;;;;;-0.93;89.70;97252.66;105636;1258;62086;-22
2023/03/28 07:09:36;;;;;;;1.80;0.80;;;;;;;-1.01;90.02;97267.83;105614;1254;74778;-22
2023/03/28 07:12:08;;;;;;;0.40;0.40;;;;;;;-1.17;90.30;97251.64;105705;1254;75907;-22
2023/03/28 07:14:41;;;;;;;2.00;0.80;;;;;;;-1.18;91.37;97253.70;105731;1254;73977;-22
2023/03/28 07:17:12;;;;;;;0.80;0.80;;;;;;;-1.14;91.41;97234.92;105654;1253;61163;-22
2023/03/28 07:19:44;;;;;;;1.20;0.70;;;;;;;-1.24;91.46;97250.18;105401;1253;61170;-23
2023/03/28 07:22:12;;;;;;;1.00;0.90;;;;;;;-1.33;91.42;97262.98;105509;1258;74486;-22
2023/03/28 07:24:39;;;;;;;0.90;0.70;;;;;;;-1.37;91.67;97252.19;105558;1253;76219;-22
2023/03/28 07:27:14;;;;;;;2.80;1.60;;;;;;;-1.29;91.36;97264.96;105498;1253;74232;-22
2023/03/28 07:29:45;;;;;;;0.70;0.70;;;;;;;-1.13;89.98;97254.79;105530;1254;61144;-22
2023/03/28 07:32:15;;;;;;;1.40;0.90;;;;;;;-1.44;90.21;97253.96;105664;1254;61854;-22
2023/03/28 07:34:44;;;;;;;1.50;0.80;;;;;;;-1.43;90.77;97260.70;105718;1256;74660;-22
2023/03/28 07:37:16;;;;;;;1.70;0.80;;;;;;;-1.42;90.30;97248.39;105692;1254;74700;-22
2023/03/28 07:39:56;;;;;;;1.10;1.00;;;;;;;-1.47;90.11;97267.73;105617;1259;74705;-22
2023/03/28 07:42:25;;;;;;;1.10;0.90;;;;;;;-1.54;90.05;97260.17;105723;1254;61064;-22
2023/03/28 07:44:53;;;;;;;1.10;0.90;;;;;;;-1.83;91.00;97252.38;105712;1261;61790;-22
2023/03/28 07:47:20;;;;;;;2.00;1.10;;;;;;;-1.76;91.39;97268.30;105936;1256;74014;-22
2023/03/28 07:49:48;;;;;;;1.70;0.90;;;;;;;-1.56;90.35;97248.71;105724;1254;75884;-22
2023/03/28 07:52:19;;;;;;;1.50;1.00;;;;;;;-1.66;90.23;97264.79;105771;1256;72938;-22
2023/03/28 07:54:46;;;;;;;1.60;1.00;;;;;;;-1.70;90.62;97266.21;105552;1254;62732;-22
2023/03/28 07:57:15;;;;;;;1.40;1.00;;;;;;;-1.37;90.22;97274.48;105562;1256;61940;-22
2023/03/28 08:00:11;;;;;;;1.70;0.90;;;;;;;-1.39;89.01;97278.31;105605;1256;73494;-22
2023/03/28 08:02:42;;;;;;;1.60;1.10;;;;;;;-1.62;89.75;97269.36;105755;1254;76026;-22
2023/03/28 08:05:12;;;;;;;3.20;1.70;;;;;;;-1.79;90.74;97271.20;105544;1254;74028;-23
2023/03/28 08:07:44;;;;;;;1.30;1.20;;;;;;;-1.64;90.47;97272.20;105541;1254;61248;-23
2023/03/28 08:10:12;;;;;;;1.60;1.20;;;;;;;-1.70;89.62;97271.14;105398;1254;61707;-22
2023/03/28 08:12:45;;;;;;;1.00;0.90;;;;;;;-1.74;90.56;97283.15;105557;1255;74565;-22
2023/03/28 08:15:18;;;;;;;1.20;0.90;;;;;;;-1.83;90.88;97281.65;105503;1254;76352;-22
2023/03/28 08:17:45;;;;;;;4.10;1.00;;;;;;;-1.77;90.18;97270.87;105544;1256;74097;-23
2023/03/28 08:20:20;;;;;;;1.80;1.20;;;;;;;-1.66;89.78;97285.92;105307;1260;61188;-22
2023/03/28 08:23:21;;;;;;;1.60;1.40;;;;;;;-1.79;89.82;97284.48;105486;1256;62148;-22
2023/03/28 08:26:18;;;;;;;1.60;1.20;;;;;;;-1.90;90.67;97287.49;105837;1254;74489;-22
2023/03/28 08:28:50;;;;;;;1.90;1.00;;;;;;;-1.58;90.07;97290.73;105860;1256;75012;-22
2023/03/28 08:31:17;;;;;;;1.00;0.90;;;;;;;-1.78;89.56;97279.11;105674;1254;74331;-22
2023/03/28 08:33:52;;;;;;;1.40;1.10;;;;;;;-1.87;90.04;97287.34;105692;1254;61259;-22
2023/03/28 08:36:24;;;;;;;1.50;1.00;;;;;;;-2.02;90.90;97266.09;105529;1260;61709;-23
2023/03/28 08:38:53;;;;;;;5.40;1.40;;;;;;;-1.90;90.91;97282.55;105307;1254;74616;-22
2023/03/28 08:41:40;;;;;;;1.70;1.30;;;;;;;-1.91;90.64;97291.49;105516;1258;75829;-22
2023/03/28 08:44:10;;;;;;;1.70;1.10;;;;;;;-1.94;90.83;97301.84;105569;1254;74238;-23
2023/03/28 08:46:40;;;;;;;1.40;1.00;;;;;;;-1.66;90.26;97303.61;105516;1254;61563;-22
2023/03/28 08:49:11;;;;;;;3.50;1.50;;;;;;;-1.76;89.65;97297.88;105563;1254;60971;-22
2023/03/28 08:51:41;;;;;;;1.30;1.20;;;;;;;-2.03;90.03;97282.27;105342;1254;74353;-22
2023/03/28 08:54:09;;;;;;;1.30;1.10;;;;;;;-2.15;90.60;97287.02;105499;1254;75678;-22
2023/03/28 08:56:42;;;;;;;1.60;1.30;;;;;;;-2.19;90.48;97284.58;105588;1254;74175;-22
2023/03/28 08:59:12;;;;;;;1.40;1.10;;;;;;;-1.91;89.71;97292.63;105216;1254;61065;-22
2023/03/28 09:01:39;;;;;;;2.20;1.50;;;;;;;-2.23;90.07;97290.08;105522;1259;61989;-22
2023/03/28 09:04:35;;;;;;;1.70;1.50;;;;;;;-2.18;90.56;97293.00;105495;1254;74576;-22
2023/03/28 09:07:21;;;;;;;1.20;1.10;;;;;;;-1.82;89.76;97314.40;105507;1259;75708;-22
2023/03/28 09:10:24;;;;;;;1.70;1.40;;;;;;;-2.05;89.50;97298.89;105301;1257;74221;-22
2023/03/28 09:13:22;;;;;;;1.40;1.20;;;;;;;-2.25;90.02;97297.98;105361;1253;62717;-22
2023/03/28 09:16:20;;;;;;;1.20;1.00;;;;;;;-1.98;89.23;97293.92;105432;1259;61653;-22
2023/03/28 09:19:33;;;;;;;3.50;1.70;;;;;;;-2.05;89.26;97318.41;105567;1259;74296;-22
2023/03/28 09:23:01;;;;;;;2.30;1.60;;;;;;;-2.03;90.10;97336.70;105491;1257;75766;-22
2023/03/28 09:25:48;;;;;;;1.60;1.50;;;;;;;-2.07;89.48;97310.41;105454;1257;73324;-22
2023/03/28 09:28:31;;;;;;;1.90;1.60;;;;;;;-2.30;88.84;97302.52;105432;1257;61621;-23
2023/03/28 09:30:59;;;;;;;1.90;1.40;;;;;;;-2.25;89.58;97335.77;105341;1261;61663;-22
2023/03/28 09:33:32;;;;;;;1.90;1.70;;;;;;;-2.35;89.95;97318.60;105340;1257;73482;-22
2023/03/28 09:36:00;;;;;;;2.50;1.30;;;;;;;-1.97;89.35;97333.80;105192;1257;75023;-23
2023/03/28 09:38:32;;;;;;;2.10;1.40;;;;;;;-2.06;89.13;97341.79;105340;1257;74000;-23
2023/03/28 09:41:02;;;;;;;1.80;1.40;;;;;;;-2.21;89.58;97341.80;105262;1254;61148;-23
2023/03/28 09:43:44;;;;;;;1.80;1.40;;;;;;;-2.22;90.25;97329.44;105664;1253;62107;-22
2023/03/28 09:46:42;;;;;;;1.60;1.20;;;;;;;-2.05;88.96;97342.78;105609;1254;74470;-22
2023/03/28 09:49:34;;;;;;;1.70;1.20;;;;;;;-2.28;89.25;97356.16;105444;1254;74865;-23
2023/03/28 09:52:13;;;;;;;1.70;1.50;;;;;;;-2.25;89.65;97350.36;105570;1254;72757;-22
2023/03/28 09:54:41;;;;;;;2.40;1.70;;;;;;;-2.26;89.43;97370.95;105416;1252;62454;-22
2023/03/28 09:57:09;;;;;;;1.60;1.20;;;;;;;-1.99;88.47;97372.88;105576;1252;61154;-22
2023/03/28 09:59:56;;;;;;;3.50;1.30;;;;;;;-2.03;87.90;97369.52;105531;1254;74536;-22
2023/03/28 10:02:27;;;;;;;1.50;1.30;;;;;;;-1.99;88.34;97384.58;105295;1254;75817;-22
2023/03/28 10:04:54;;;;;;;2.00;1.20;;;;;;;-2.13;88.23;97370.30;105657;1254;72914;-22
2023/03/28 10:07:50;;;;;;;2.30;1.50;;;;;;;-1.95;87.31;97372.46;105769;1254;61704;-22
2023/03/28 10:10:58;;;;;;;1.90;1.50;;;;;;;-2.27;87.79;97360.11;105741;1254;61750;-22
2023/03/28 10:13:35;;;;;;;9.10;1.70;;;;;;;-2.24;88.55;97390.40;105680;1260;75372;-22
2023/03/28 10:16:03;;;;;;;2.50;1.60;;;;;;;-2.09;88.23;97383.44;105706;1254;75450;-22
2023/03/28 10:26:32;;;;;;;1.80;1.40;;;;;;;-2.34;88.44;97382.16;102641;1292;599149;-23
2023/03/28 10:29:04;;;;;;;2.00;1.40;;;;;;;-2.07;86.94;97399.35;104851;1267;61177;-23
2023/03/28 10:31:33;;;;;;;5.60;1.40;;;;;;;-2.12;86.50;97402.52;104823;1267;61812;-23
2023/03/28 10:34:35;;;;;;;1.90;1.40;;;;;;;-2.30;86.78;97399.92;104863;1266;73778;-23
2023/03/28 10:37:26;;;;;;;2.40;1.50;;;;;;;-2.07;86.87;97418.22;104894;1267;75859;-23
2023/03/28 10:40:17;;;;;;;2.10;1.30;;;;;;;-2.12;86.20;97414.75;103340;1263;2124781;-23
2023/03/28 10:43:12;;;;;;;1.70;1.30;;;;;;;-2.07;86.41;97430.94;105006;1267;61355;-23
2023/03/28 10:45:51;;;;;;;2.30;1.30;;;;;;;-2.27;87.06;97431.04;104889;1272;61855;-23
2023/03/28 10:48:29;;;;;;;2.40;1.30;;;;;;;-2.44;87.45;97412.11;105200;1269;73678;-22
2023/03/28 10:51:07;;;;;;;2.00;1.60;;;;;;;-2.24;87.36;97424.63;104998;1267;75879;-22
2023/03/28 10:53:51;;;;;;;1.90;1.40;;;;;;;-2.45;86.74;97406.01;104921;1264;73827;-22
2023/03/28 10:56:38;;;;;;;3.50;2.00;;;;;;;-2.52;87.95;97437.36;104842;1267;62747;-23
2023/03/28 10:59:20;;;;;;;2.40;1.40;;;;;;;-2.32;87.51;97440.98;104713;1272;62181;-23
2023/03/28 11:02:18;;;;;;;2.80;1.40;;;;;;;-2.35;86.92;97432.02;105081;1267;74681;-23
2023/03/28 11:05:28;;;;;;;2.30;1.60;;;;;;;-2.40;87.32;97456.60;105220;1266;75901;-22
2023/03/28 11:07:57;;;;;;;2.10;1.50;;;;;;;-2.43;87.98;97452.48;104725;1273;73396;-23
2023/03/28 11:11:09;;;;;;;2.40;2.00;;;;;;;-2.38;87.34;97453.39;105443;1262;61153;-22
2023/03/28 11:14:21;;;;;;;6.00;2.30;;;;;;;-2.51;87.53;97452.04;105502;1263;61173;-23
2023/03/28 11:16:57;;;;;;;3.20;2.10;;;;;;;-2.69;88.41;97459.79;105488;1257;73454;-23
2023/03/28 11:20:16;;;;;;;4.30;3.00;;;;;;;-2.38;87.28;97473.78;105398;1258;75818;-22
2023/03/28 11:23:18;;;;;;;4.40;2.40;;;;;;;-2.56;87.59;97452.86;105449;1257;74232;-22
2023/03/28 11:26:22;;;;;;;2.10;1.50;;;;;;;-2.68;88.42;97463.48;105519;1258;62766;-23
2023/03/28 11:29:15;;;;;;;1.70;1.40;;;;;;;-2.46;87.53;97472.17;105542;1262;61722;-22
2023/03/28 11:32:01;;;;;;;3.80;1.80;;;;;;;-2.46;87.90;97473.53;105452;1262;73564;-22
2023/03/28 11:34:42;;;;;;;2.00;1.60;;;;;;;-2.60;88.25;97477.48;105269;1265;75826;-22
2023/03/28 11:37:17;;;;;;;3.80;1.80;;;;;;;-2.47;88.40;97473.91;105274;1260;73964;-22
2023/03/28 11:39:54;;;;;;;4.00;1.90;;;;;;;-2.47;87.91;97486.15;105229;1265;61590;-23
2023/03/28 11:42:34;;;;;;;3.20;1.40;;;;;;;-2.68;88.26;97487.12;105124;1265;61144;-22
2023/03/28 11:45:37;;;;;;;2.20;1.70;;;;;;;-2.54;88.24;97491.13;105329;1258;73590;-22
2023/03/28 11:48:27;;;;;;;2.30;1.50;;;;;;;-2.41;88.24;97488.92;105291;1263;76270;-22
2023/03/28 11:51:20;;;;;;;1.60;1.40;;;;;;;-2.29;87.60;97513.61;105384;1257;73244;-22
2023/03/28 11:54:18;;;;;;;3.70;2.30;;;;;;;-2.55;88.01;97516.68;105520;1257;61215;-22
2023/03/28 11:56:54;;;;;;;5.50;2.50;;;;;;;-2.64;89.08;97508.29;105359;1257;61319;-22
2023/03/28 12:00:00;;;;;;;2.80;2.00;;;;;;;-2.47;88.31;97513.73;105497;1257;74582;-24
2023/03/28 12:02:41;;;;;;;2.90;2.00;;;;;;;-2.47;87.77;97510.46;105448;1263;76014;-22
2023/03/28 12:05:17;;;;;;;2.80;2.00;;;;;;;-2.71;88.75;97497.80;105259;1264;74226;-22
2023/03/28 12:07:51;;;;;;;3.50;1.80;;;;;;;-2.58;88.70;97514.98;105315;1257;61097;-24
2023/03/28 12:10:38;;;;;;;3.00;1.70;;;;;;;-2.25;88.13;97532.93;105374;1257;61128;-24
2023/03/28 12:13:42;;;;;;;3.00;1.80;;;;;;;-2.49;88.30;97528.08;105371;1257;74221;-22
2023/03/28 12:16:17;;;;;;;2.50;1.80;;;;;;;-2.53;88.97;97531.66;105303;1257;74872;-22
2023/03/28 12:18:48;;;;;;;3.00;1.60;;;;;;;-2.30;88.37;97532.05;105245;1260;74266;-22
2023/03/28 12:21:34;;;;;;;3.90;1.80;;;;;;;-2.27;87.66;97541.22;105257;1258;61070;-24
2023/03/28 12:24:10;;;;;;;2.50;2.00;;;;;;;-2.36;87.73;97539.12;105368;1261;61799;-23
2023/03/28 12:27:27;;;;;;;3.40;2.40;;;;;;;-2.52;88.30;97533.64;105041;1257;74644;-22
2023/03/28 12:30:20;;;;;;;4.50;2.50;;;;;;;-2.31;87.68;97554.00;105509;1257;75437;-22